sensor_id;sensor_type;location;lat;lon;timestamp;temperature;humidity
33414;DHT22;60055;41.884;12.534;2022-11-15T00:01:35;11.80;99.90
33414;DHT22;60055;41.884;12.534;2022-11-15T00:04:03;11.80;99.90
33414;DHT22;60055;41.884;12.534;2022-11-15T00:06:29;11.90;99.90
33414;DHT22;60055;41.884;12.534;2022-11-15T00:08:58;11.90;99.90
33414;DHT22;60055;41.884;12.534;2022-11-15T00:11:24;11.80;99.90
33414;DHT22;60055;41.884;12.534;2022-11-15T00:13:50;11.80;99.90
33414;DHT22;60055;41.884;12.534;2022-11-15T00:16:17;11.80;99.90
33414;DHT22;60055;41.884;12.534;2022-11-15T00:18:43;11.90;99.90
33414;DHT22;60055;41.884;12.534;2022-11-15T00:21:11;11.90;99.90
33414;DHT22;60055;41.884;12.534;2022-11-15T00:23:37;11.80;99.90
33414;DHT22;60055;41.884;12.534;2022-11-15T00:26:03;11.70;99.90
33414;DHT22;60055;41.884;12.534;2022-11-15T00:28:28;11.70;99.90
33414;DHT22;60055;41.884;12.534;2022-11-15T00:31:00;11.70;99.90
33414;DHT22;60055;41.884;12.534;2022-11-15T00:33:26;11.70;99.90
33414;DHT22;60055;41.884;12.534;2022-11-15T00:35:53;11.60;99.90
33414;DHT22;60055;41.884;12.534;2022-11-15T00:38:19;11.60;99.90
33414;DHT22;60055;41.884;12.534;2022-11-15T00:40:44;11.50;99.90
33414;DHT22;60055;41.884;12.534;2022-11-15T00:43:10;11.60;99.90
33414;DHT22;60055;41.884;12.534;2022-11-15T00:45:35;11.60;99.90
33414;DHT22;60055;41.884;12.534;2022-11-15T00:48:01;11.60;99.90
33414;DHT22;60055;41.884;12.534;2022-11-15T00:50:27;11.50;99.90
33414;DHT22;60055;41.884;12.534;2022-11-15T00:52:52;11.60;99.90
33414;DHT22;60055;41.884;12.534;2022-11-15T00:55:19;11.60;99.90
33414;DHT22;60055;41.884;12.534;2022-11-15T00:57:45;11.60;99.90
33414;DHT22;60055;41.884;12.534;2022-11-15T01:00:12;11.50;99.90
33414;DHT22;60055;41.884;12.534;2022-11-15T01:02:37;11.40;99.90
33414;DHT22;60055;41.884;12.534;2022-11-15T01:05:04;11.50;99.90
33414;DHT22;60055;41.884;12.534;2022-11-15T01:07:30;11.40;99.90
33414;DHT22;60055;41.884;12.534;2022-11-15T01:09:58;11.40;99.90
33414;DHT22;60055;41.884;12.534;2022-11-15T01:12:24;11.30;99.90
33414;DHT22;60055;41.884;12.534;2022-11-15T01:14:49;11.30;99.90
33414;DHT22;60055;41.884;12.534;2022-11-15T01:17:15;11.40;99.90
33414;DHT22;60055;41.884;12.534;2022-11-15T01:19:41;11.30;99.90
33414;DHT22;60055;41.884;12.534;2022-11-15T01:22:06;11.20;99.90
33414;DHT22;60055;41.884;12.534;2022-11-15T01:24:32;11.20;99.90
33414;DHT22;60055;41.884;12.534;2022-11-15T01:26:57;11.20;99.90
33414;DHT22;60055;41.884;12.534;2022-11-15T01:29:23;11.20;99.90
33414;DHT22;60055;41.884;12.534;2022-11-15T01:31:49;11.10;99.90
33414;DHT22;60055;41.884;12.534;2022-11-15T01:34:16;11.20;99.90
33414;DHT22;60055;41.884;12.534;2022-11-15T01:36:42;11.20;99.90
33414;DHT22;60055;41.884;12.534;2022-11-15T01:39:07;11.30;99.90
33414;DHT22;60055;41.884;12.534;2022-11-15T01:41:33;11.30;99.90
33414;DHT22;60055;41.884;12.534;2022-11-15T01:47:02;11.10;99.90
33414;DHT22;60055;41.884;12.534;2022-11-15T01:49:31;11.10;99.90
33414;DHT22;60055;41.884;12.534;2022-11-15T01:52:02;11.00;99.90
33414;DHT22;60055;41.884;12.534;2022-11-15T01:54:29;11.00;99.90
33414;DHT22;60055;41.884;12.534;2022-11-15T01:57:07;11.00;99.90
33414;DHT22;60055;41.884;12.534;2022-11-15T01:59:36;11.10;99.90
33414;DHT22;60055;41.884;12.534;2022-11-15T02:02:02;11.10;99.90
33414;DHT22;60055;41.884;12.534;2022-11-15T02:04:34;11.10;99.90
33414;DHT22;60055;41.884;12.534;2022-11-15T02:07:03;11.00;99.90
33414;DHT22;60055;41.884;12.534;2022-11-15T02:09:31;10.90;99.90
33414;DHT22;60055;41.884;12.534;2022-11-15T02:11:57;10.80;99.90
33414;DHT22;60055;41.884;12.534;2022-11-15T02:14:26;10.80;99.90
33414;DHT22;60055;41.884;12.534;2022-11-15T02:17:19;10.90;99.90
33414;DHT22;60055;41.884;12.534;2022-11-15T02:28:45;10.90;99.90
33414;DHT22;60055;41.884;12.534;2022-11-15T02:32:06;10.90;99.90
33414;DHT22;60055;41.884;12.534;2022-11-15T02:34:47;10.80;99.90
33414;DHT22;60055;41.884;12.534;2022-11-15T02:37:42;10.80;99.90
33414;DHT22;60055;41.884;12.534;2022-11-15T02:43:18;10.90;99.90
33414;DHT22;60055;41.884;12.534;2022-11-15T02:46:18;10.90;99.90
33414;DHT22;60055;41.884;12.534;2022-11-15T02:48:48;10.80;99.90
33414;DHT22;60055;41.884;12.534;2022-11-15T02:51:14;10.90;99.90
33414;DHT22;60055;41.884;12.534;2022-11-15T02:53:42;10.90;99.90
33414;DHT22;60055;41.884;12.534;2022-11-15T02:56:09;10.70;99.90
33414;DHT22;60055;41.884;12.534;2022-11-15T02:58:41;10.70;99.90
33414;DHT22;60055;41.884;12.534;2022-11-15T03:06:57;10.80;99.90
33414;DHT22;60055;41.884;12.534;2022-11-15T03:15:06;10.50;99.90
33414;DHT22;60055;41.884;12.534;2022-11-15T03:17:39;10.50;99.90
33414;DHT22;60055;41.884;12.534;2022-11-15T03:20:07;10.50;99.90
33414;DHT22;60055;41.884;12.534;2022-11-15T03:22:37;10.60;99.90
33414;DHT22;60055;41.884;12.534;2022-11-15T03:25:07;10.50;99.90
33414;DHT22;60055;41.884;12.534;2022-11-15T03:27:38;10.40;99.90
33414;DHT22;60055;41.884;12.534;2022-11-15T03:30:07;10.40;99.90
33414;DHT22;60055;41.884;12.534;2022-11-15T03:32:37;10.50;99.90
33414;DHT22;60055;41.884;12.534;2022-11-15T03:35:11;10.40;99.90
33414;DHT22;60055;41.884;12.534;2022-11-15T03:37:45;10.60;99.90
33414;DHT22;60055;41.884;12.534;2022-11-15T03:40:13;10.40;99.90
33414;DHT22;60055;41.884;12.534;2022-11-15T03:42:53;10.40;99.90
33414;DHT22;60055;41.884;12.534;2022-11-15T03:45:29;10.40;99.90
33414;DHT22;60055;41.884;12.534;2022-11-15T03:48:05;10.30;99.90
33414;DHT22;60055;41.884;12.534;2022-11-15T03:50:33;10.60;99.90
33414;DHT22;60055;41.884;12.534;2022-11-15T03:53:00;10.30;99.90
33414;DHT22;60055;41.884;12.534;2022-11-15T03:55:26;10.10;99.90
33414;DHT22;60055;41.884;12.534;2022-11-15T03:57:54;10.30;99.90
33414;DHT22;60055;41.884;12.534;2022-11-15T04:00:21;10.20;99.90
33414;DHT22;60055;41.884;12.534;2022-11-15T04:02:47;10.30;99.90
33414;DHT22;60055;41.884;12.534;2022-11-15T04:05:12;10.40;99.90
33414;DHT22;60055;41.884;12.534;2022-11-15T04:07:41;10.40;99.90
33414;DHT22;60055;41.884;12.534;2022-11-15T04:10:07;10.30;99.90
33414;DHT22;60055;41.884;12.534;2022-11-15T04:12:38;10.40;99.90
33414;DHT22;60055;41.884;12.534;2022-11-15T04:15:11;10.20;99.90
33414;DHT22;60055;41.884;12.534;2022-11-15T04:22:59;10.40;99.90
33414;DHT22;60055;41.884;12.534;2022-11-15T04:25:43;10.50;99.90
33414;DHT22;60055;41.884;12.534;2022-11-15T04:28:10;10.50;99.90
33414;DHT22;60055;41.884;12.534;2022-11-15T04:30:36;10.40;99.90
33414;DHT22;60055;41.884;12.534;2022-11-15T04:33:02;10.40;99.90
33414;DHT22;60055;41.884;12.534;2022-11-15T04:35:28;10.40;99.90
33414;DHT22;60055;41.884;12.534;2022-11-15T04:37:54;10.40;99.90
33414;DHT22;60055;41.884;12.534;2022-11-15T04:40:20;10.50;99.90
33414;DHT22;60055;41.884;12.534;2022-11-15T04:42:45;10.60;99.90
33414;DHT22;60055;41.884;12.534;2022-11-15T04:45:11;10.70;99.90
33414;DHT22;60055;41.884;12.534;2022-11-15T04:47:37;10.70;99.90
33414;DHT22;60055;41.884;12.534;2022-11-15T04:50:03;10.70;99.90
33414;DHT22;60055;41.884;12.534;2022-11-15T04:52:29;10.80;99.90
33414;DHT22;60055;41.884;12.534;2022-11-15T04:54:54;10.80;99.90
33414;DHT22;60055;41.884;12.534;2022-11-15T04:57:20;10.80;99.90
33414;DHT22;60055;41.884;12.534;2022-11-15T04:59:46;10.70;99.90
33414;DHT22;60055;41.884;12.534;2022-11-15T05:02:11;10.80;99.90
33414;DHT22;60055;41.884;12.534;2022-11-15T05:04:37;10.70;99.90
33414;DHT22;60055;41.884;12.534;2022-11-15T05:07:03;10.70;99.90
33414;DHT22;60055;41.884;12.534;2022-11-15T05:09:31;10.80;99.90
33414;DHT22;60055;41.884;12.534;2022-11-15T05:11:57;10.80;99.90
33414;DHT22;60055;41.884;12.534;2022-11-15T05:14:22;10.70;99.90
33414;DHT22;60055;41.884;12.534;2022-11-15T05:16:48;10.70;99.90
33414;DHT22;60055;41.884;12.534;2022-11-15T05:19:14;10.60;99.90
33414;DHT22;60055;41.884;12.534;2022-11-15T05:21:39;10.60;99.90
33414;DHT22;60055;41.884;12.534;2022-11-15T05:24:05;10.60;99.90
33414;DHT22;60055;41.884;12.534;2022-11-15T05:26:31;10.70;99.90
33414;DHT22;60055;41.884;12.534;2022-11-15T05:28:58;10.80;99.90
33414;DHT22;60055;41.884;12.534;2022-11-15T05:31:25;10.80;99.90
33414;DHT22;60055;41.884;12.534;2022-11-15T05:33:51;10.70;99.90
33414;DHT22;60055;41.884;12.534;2022-11-15T05:36:31;10.70;99.90
33414;DHT22;60055;41.884;12.534;2022-11-15T05:38:58;10.70;99.90
33414;DHT22;60055;41.884;12.534;2022-11-15T05:41:46;10.70;99.90
33414;DHT22;60055;41.884;12.534;2022-11-15T05:44:17;10.70;99.90
33414;DHT22;60055;41.884;12.534;2022-11-15T05:46:49;10.50;99.90
33414;DHT22;60055;41.884;12.534;2022-11-15T05:49:19;10.60;99.90
33414;DHT22;60055;41.884;12.534;2022-11-15T05:51:47;10.40;99.90
33414;DHT22;60055;41.884;12.534;2022-11-15T05:54:14;10.60;99.90
33414;DHT22;60055;41.884;12.534;2022-11-15T05:56:40;10.60;99.90
33414;DHT22;60055;41.884;12.534;2022-11-15T05:59:07;10.70;99.90
33414;DHT22;60055;41.884;12.534;2022-11-15T06:01:33;10.60;99.90
33414;DHT22;60055;41.884;12.534;2022-11-15T06:03:59;10.50;99.90
33414;DHT22;60055;41.884;12.534;2022-11-15T06:06:24;10.50;99.90
33414;DHT22;60055;41.884;12.534;2022-11-15T06:08:52;10.50;99.90
33414;DHT22;60055;41.884;12.534;2022-11-15T06:11:18;10.50;99.90
33414;DHT22;60055;41.884;12.534;2022-11-15T06:13:43;10.40;99.90
33414;DHT22;60055;41.884;12.534;2022-11-15T06:16:09;10.50;99.90
33414;DHT22;60055;41.884;12.534;2022-11-15T06:18:36;10.40;99.90
33414;DHT22;60055;41.884;12.534;2022-11-15T06:21:02;10.40;99.90
33414;DHT22;60055;41.884;12.534;2022-11-15T06:23:31;10.60;99.90
33414;DHT22;60055;41.884;12.534;2022-11-15T06:25:59;10.60;99.90
33414;DHT22;60055;41.884;12.534;2022-11-15T06:28:31;10.80;99.90
33414;DHT22;60055;41.884;12.534;2022-11-15T06:31:03;10.80;99.90
33414;DHT22;60055;41.884;12.534;2022-11-15T06:33:29;10.80;99.90
33414;DHT22;60055;41.884;12.534;2022-11-15T06:36:07;10.90;99.90
33414;DHT22;60055;41.884;12.534;2022-11-15T06:38:33;10.90;99.90
33414;DHT22;60055;41.884;12.534;2022-11-15T06:41:03;10.80;99.90
33414;DHT22;60055;41.884;12.534;2022-11-15T06:43:29;10.80;99.90
33414;DHT22;60055;41.884;12.534;2022-11-15T06:45:56;11.00;99.90
33414;DHT22;60055;41.884;12.534;2022-11-15T06:48:22;11.00;99.90
33414;DHT22;60055;41.884;12.534;2022-11-15T06:50:52;10.90;99.90
33414;DHT22;60055;41.884;12.534;2022-11-15T06:53:18;11.00;99.90
33414;DHT22;60055;41.884;12.534;2022-11-15T06:55:44;11.00;99.90
33414;DHT22;60055;41.884;12.534;2022-11-15T06:58:09;10.90;99.90
33414;DHT22;60055;41.884;12.534;2022-11-15T07:00:36;10.90;99.90
33414;DHT22;60055;41.884;12.534;2022-11-15T07:03:02;10.90;99.90
33414;DHT22;60055;41.884;12.534;2022-11-15T07:05:29;10.90;99.90
33414;DHT22;60055;41.884;12.534;2022-11-15T07:07:55;10.90;99.90
33414;DHT22;60055;41.884;12.534;2022-11-15T07:10:21;11.00;99.90
33414;DHT22;60055;41.884;12.534;2022-11-15T07:12:48;11.10;99.90
33414;DHT22;60055;41.884;12.534;2022-11-15T07:15:15;11.10;99.90
33414;DHT22;60055;41.884;12.534;2022-11-15T07:17:47;11.10;99.90
33414;DHT22;60055;41.884;12.534;2022-11-15T07:20:13;11.10;99.90
33414;DHT22;60055;41.884;12.534;2022-11-15T07:22:40;11.20;99.90
33414;DHT22;60055;41.884;12.534;2022-11-15T07:25:06;11.30;99.90
33414;DHT22;60055;41.884;12.534;2022-11-15T07:27:32;11.30;99.90
33414;DHT22;60055;41.884;12.534;2022-11-15T07:29:58;11.50;99.90
33414;DHT22;60055;41.884;12.534;2022-11-15T07:32:25;11.40;99.90
33414;DHT22;60055;41.884;12.534;2022-11-15T07:34:51;11.50;99.90
33414;DHT22;60055;41.884;12.534;2022-11-15T07:37:16;11.40;99.90
33414;DHT22;60055;41.884;12.534;2022-11-15T07:39:43;11.40;99.90
33414;DHT22;60055;41.884;12.534;2022-11-15T07:42:09;11.40;99.90
33414;DHT22;60055;41.884;12.534;2022-11-15T07:44:55;11.40;99.90
33414;DHT22;60055;41.884;12.534;2022-11-15T07:47:22;11.50;99.90
33414;DHT22;60055;41.884;12.534;2022-11-15T07:49:48;11.50;99.90
33414;DHT22;60055;41.884;12.534;2022-11-15T07:52:15;11.40;99.90
33414;DHT22;60055;41.884;12.534;2022-11-15T07:54:41;11.40;99.90
33414;DHT22;60055;41.884;12.534;2022-11-15T07:57:13;11.50;99.90
33414;DHT22;60055;41.884;12.534;2022-11-15T07:59:39;11.60;99.90
33414;DHT22;60055;41.884;12.534;2022-11-15T08:02:05;11.60;99.90
33414;DHT22;60055;41.884;12.534;2022-11-15T08:04:31;11.60;99.90
33414;DHT22;60055;41.884;12.534;2022-11-15T08:06:57;11.60;99.90
33414;DHT22;60055;41.884;12.534;2022-11-15T08:09:24;11.70;99.90
33414;DHT22;60055;41.884;12.534;2022-11-15T08:11:50;12.10;99.90
33414;DHT22;60055;41.884;12.534;2022-11-15T08:14:17;12.30;99.90
33414;DHT22;60055;41.884;12.534;2022-11-15T08:16:43;12.40;99.90
33414;DHT22;60055;41.884;12.534;2022-11-15T08:19:08;12.50;99.90
33414;DHT22;60055;41.884;12.534;2022-11-15T08:21:34;12.40;99.90
33414;DHT22;60055;41.884;12.534;2022-11-15T08:24:03;12.70;99.90
33414;DHT22;60055;41.884;12.534;2022-11-15T08:26:31;12.30;99.90
33414;DHT22;60055;41.884;12.534;2022-11-15T08:28:57;12.20;99.90
33414;DHT22;60055;41.884;12.534;2022-11-15T08:31:23;12.10;99.90
33414;DHT22;60055;41.884;12.534;2022-11-15T08:33:50;12.20;99.90
33414;DHT22;60055;41.884;12.534;2022-11-15T08:36:18;12.50;99.90
33414;DHT22;60055;41.884;12.534;2022-11-15T08:38:43;12.70;99.90
33414;DHT22;60055;41.884;12.534;2022-11-15T08:41:13;12.60;99.90
33414;DHT22;60055;41.884;12.534;2022-11-15T08:43:41;12.60;99.90
33414;DHT22;60055;41.884;12.534;2022-11-15T08:46:11;13.00;99.90
33414;DHT22;60055;41.884;12.534;2022-11-15T08:48:38;13.20;99.90
33414;DHT22;60055;41.884;12.534;2022-11-15T08:51:04;13.60;99.90
33414;DHT22;60055;41.884;12.534;2022-11-15T08:53:30;13.30;99.90
33414;DHT22;60055;41.884;12.534;2022-11-15T08:55:56;13.20;99.90
33414;DHT22;60055;41.884;12.534;2022-11-15T08:58:21;13.30;99.90
33414;DHT22;60055;41.884;12.534;2022-11-15T09:00:47;13.30;99.90
33414;DHT22;60055;41.884;12.534;2022-11-15T09:03:14;13.50;99.90
33414;DHT22;60055;41.884;12.534;2022-11-15T09:05:42;13.50;99.90
33414;DHT22;60055;41.884;12.534;2022-11-15T09:08:10;13.70;99.90
33414;DHT22;60055;41.884;12.534;2022-11-15T09:10:38;13.80;99.90
33414;DHT22;60055;41.884;12.534;2022-11-15T09:13:03;14.10;99.90
33414;DHT22;60055;41.884;12.534;2022-11-15T09:15:31;13.90;99.90
33414;DHT22;60055;41.884;12.534;2022-11-15T09:17:59;13.90;99.90
33414;DHT22;60055;41.884;12.534;2022-11-15T09:20:25;14.00;99.90
33414;DHT22;60055;41.884;12.534;2022-11-15T09:22:59;13.80;99.90
33414;DHT22;60055;41.884;12.534;2022-11-15T09:25:32;13.70;99.90
33414;DHT22;60055;41.884;12.534;2022-11-15T09:27:58;14.10;99.90
33414;DHT22;60055;41.884;12.534;2022-11-15T09:30:25;14.40;99.90
33414;DHT22;60055;41.884;12.534;2022-11-15T09:32:53;14.00;99.90
33414;DHT22;60055;41.884;12.534;2022-11-15T09:35:19;13.60;99.90
33414;DHT22;60055;41.884;12.534;2022-11-15T09:37:45;14.50;99.90
33414;DHT22;60055;41.884;12.534;2022-11-15T09:40:15;14.60;99.90
33414;DHT22;60055;41.884;12.534;2022-11-15T09:45:34;14.90;99.90
33414;DHT22;60055;41.884;12.534;2022-11-15T09:50:52;15.30;99.90
33414;DHT22;60055;41.884;12.534;2022-11-15T09:53:39;15.20;99.90
33414;DHT22;60055;41.884;12.534;2022-11-15T09:56:20;15.30;99.90
33414;DHT22;60055;41.884;12.534;2022-11-15T10:04:33;14.90;99.90
33414;DHT22;60055;41.884;12.534;2022-11-15T10:07:12;14.70;99.90
33414;DHT22;60055;41.884;12.534;2022-11-15T10:12:12;14.90;99.90
33414;DHT22;60055;41.884;12.534;2022-11-15T10:14:42;15.20;99.90
33414;DHT22;60055;41.884;12.534;2022-11-15T10:17:27;15.10;99.90
33414;DHT22;60055;41.884;12.534;2022-11-15T10:22:48;15.10;99.90
33414;DHT22;60055;41.884;12.534;2022-11-15T10:25:17;15.20;99.90
33414;DHT22;60055;41.884;12.534;2022-11-15T10:30:48;15.30;99.90
33414;DHT22;60055;41.884;12.534;2022-11-15T10:33:33;15.10;99.90
33414;DHT22;60055;41.884;12.534;2022-11-15T10:38:53;15.50;99.90
33414;DHT22;60055;41.884;12.534;2022-11-15T10:41:35;15.30;99.90
33414;DHT22;60055;41.884;12.534;2022-11-15T10:44:24;15.40;99.90
33414;DHT22;60055;41.884;12.534;2022-11-15T10:49:29;15.50;99.90
33414;DHT22;60055;41.884;12.534;2022-11-15T10:52:02;15.60;99.90
33414;DHT22;60055;41.884;12.534;2022-11-15T10:54:43;15.80;99.90
33414;DHT22;60055;41.884;12.534;2022-11-15T10:57:16;15.90;99.90
33414;DHT22;60055;41.884;12.534;2022-11-15T10:59:51;15.90;99.90
33414;DHT22;60055;41.884;12.534;2022-11-15T11:02:36;15.80;99.90
33414;DHT22;60055;41.884;12.534;2022-11-15T11:05:29;16.00;99.90
33414;DHT22;60055;41.884;12.534;2022-11-15T11:08:03;16.00;99.90
33414;DHT22;60055;41.884;12.534;2022-11-15T11:10:58;16.10;99.90
33414;DHT22;60055;41.884;12.534;2022-11-15T11:13:37;16.10;99.90
33414;DHT22;60055;41.884;12.534;2022-11-15T11:16:20;16.00;99.90
33414;DHT22;60055;41.884;12.534;2022-11-15T11:19:28;15.80;99.90
33414;DHT22;60055;41.884;12.534;2022-11-15T11:22:20;16.00;99.90
33414;DHT22;60055;41.884;12.534;2022-11-15T11:30:46;16.10;99.90
33414;DHT22;60055;41.884;12.534;2022-11-15T11:33:44;16.20;99.90
33414;DHT22;60055;41.884;12.534;2022-11-15T11:45:32;15.80;99.90
33414;DHT22;60055;41.884;12.534;2022-11-15T11:48:23;15.80;99.90
33414;DHT22;60055;41.884;12.534;2022-11-15T11:50:52;15.90;99.90
33414;DHT22;60055;41.884;12.534;2022-11-15T11:53:41;15.90;99.90
33414;DHT22;60055;41.884;12.534;2022-11-15T11:56:31;15.90;99.90
33414;DHT22;60055;41.884;12.534;2022-11-15T11:59:14;15.90;99.90
33414;DHT22;60055;41.884;12.534;2022-11-15T12:01:45;15.90;99.90
33414;DHT22;60055;41.884;12.534;2022-11-15T12:04:32;16.00;99.90
33414;DHT22;60055;41.884;12.534;2022-11-15T12:07:13;16.00;99.90
33414;DHT22;60055;41.884;12.534;2022-11-15T12:09:46;16.00;99.90
33414;DHT22;60055;41.884;12.534;2022-11-15T12:12:43;16.00;99.90
33414;DHT22;60055;41.884;12.534;2022-11-15T12:17:40;16.00;99.90
33414;DHT22;60055;41.884;12.534;2022-11-15T12:20:22;16.00;99.90
33414;DHT22;60055;41.884;12.534;2022-11-15T12:23:14;16.10;99.90
33414;DHT22;60055;41.884;12.534;2022-11-15T12:26:04;16.00;99.90
33414;DHT22;60055;41.884;12.534;2022-11-15T12:28:40;16.10;99.90
33414;DHT22;60055;41.884;12.534;2022-11-15T12:31:24;16.10;99.90
33414;DHT22;60055;41.884;12.534;2022-11-15T12:33:57;16.10;99.90
33414;DHT22;60055;41.884;12.534;2022-11-15T12:36:38;16.10;99.90
33414;DHT22;60055;41.884;12.534;2022-11-15T12:39:10;16.00;99.90
33414;DHT22;60055;41.884;12.534;2022-11-15T12:42:34;16.00;99.90
33414;DHT22;60055;41.884;12.534;2022-11-15T12:47:22;16.00;99.90
33414;DHT22;60055;41.884;12.534;2022-11-15T12:49:49;16.00;99.90
33414;DHT22;60055;41.884;12.534;2022-11-15T12:52:16;16.00;99.90
33414;DHT22;60055;41.884;12.534;2022-11-15T12:54:59;16.00;99.90
33414;DHT22;60055;41.884;12.534;2022-11-15T12:57:35;16.00;99.90
33414;DHT22;60055;41.884;12.534;2022-11-15T13:03:16;16.00;99.90
33414;DHT22;60055;41.884;12.534;2022-11-15T13:08:43;16.00;99.90
33414;DHT22;60055;41.884;12.534;2022-11-15T13:11:46;16.10;99.90
33414;DHT22;60055;41.884;12.534;2022-11-15T13:17:25;16.20;99.90
33414;DHT22;60055;41.884;12.534;2022-11-15T13:28:21;16.20;99.90
33414;DHT22;60055;41.884;12.534;2022-11-15T13:31:03;16.30;99.90
33414;DHT22;60055;41.884;12.534;2022-11-15T13:33:40;16.30;99.90
33414;DHT22;60055;41.884;12.534;2022-11-15T13:36:23;16.30;99.90
33414;DHT22;60055;41.884;12.534;2022-11-15T13:39:23;16.40;99.90
33414;DHT22;60055;41.884;12.534;2022-11-15T13:41:51;16.40;99.90
33414;DHT22;60055;41.884;12.534;2022-11-15T13:44:26;16.40;99.90
33414;DHT22;60055;41.884;12.534;2022-11-15T13:47:06;16.30;99.90
33414;DHT22;60055;41.884;12.534;2022-11-15T13:49:35;16.40;99.90
33414;DHT22;60055;41.884;12.534;2022-11-15T13:52:05;16.40;99.90
33414;DHT22;60055;41.884;12.534;2022-11-15T13:57:12;16.50;99.90
33414;DHT22;60055;41.884;12.534;2022-11-15T13:59:53;16.50;99.90
33414;DHT22;60055;41.884;12.534;2022-11-15T14:02:28;16.50;99.90
33414;DHT22;60055;41.884;12.534;2022-11-15T14:07:30;16.50;99.90
33414;DHT22;60055;41.884;12.534;2022-11-15T14:09:58;16.40;99.90
33414;DHT22;60055;41.884;12.534;2022-11-15T14:12:50;16.40;99.90
33414;DHT22;60055;41.884;12.534;2022-11-15T14:17:46;16.50;99.90
33414;DHT22;60055;41.884;12.534;2022-11-15T14:20:28;16.50;99.90
33414;DHT22;60055;41.884;12.534;2022-11-15T14:23:18;16.50;99.90
33414;DHT22;60055;41.884;12.534;2022-11-15T14:25:53;16.50;99.90
33414;DHT22;60055;41.884;12.534;2022-11-15T14:30:56;16.50;99.90
33414;DHT22;60055;41.884;12.534;2022-11-15T14:33:34;16.50;99.90
33414;DHT22;60055;41.884;12.534;2022-11-15T14:36:12;16.50;99.90
33414;DHT22;60055;41.884;12.534;2022-11-15T14:38:38;16.40;99.90
33414;DHT22;60055;41.884;12.534;2022-11-15T14:41:04;16.40;99.90
33414;DHT22;60055;41.884;12.534;2022-11-15T14:43:31;16.40;99.90
33414;DHT22;60055;41.884;12.534;2022-11-15T14:45:57;16.40;99.90
33414;DHT22;60055;41.884;12.534;2022-11-15T14:48:24;16.40;99.90
33414;DHT22;60055;41.884;12.534;2022-11-15T14:50:55;16.40;99.90
33414;DHT22;60055;41.884;12.534;2022-11-15T14:53:24;16.40;99.90
33414;DHT22;60055;41.884;12.534;2022-11-15T14:55:50;16.50;99.90
33414;DHT22;60055;41.884;12.534;2022-11-15T14:58:15;16.40;99.90
33414;DHT22;60055;41.884;12.534;2022-11-15T15:00:42;16.40;99.90
33414;DHT22;60055;41.884;12.534;2022-11-15T15:03:10;16.50;99.90
33414;DHT22;60055;41.884;12.534;2022-11-15T15:05:40;16.50;99.90
33414;DHT22;60055;41.884;12.534;2022-11-15T15:08:12;16.40;99.90
33414;DHT22;60055;41.884;12.534;2022-11-15T15:10:40;16.40;99.90
33414;DHT22;60055;41.884;12.534;2022-11-15T15:13:16;16.30;99.90
33414;DHT22;60055;41.884;12.534;2022-11-15T15:15:42;16.30;99.90
33414;DHT22;60055;41.884;12.534;2022-11-15T15:18:07;16.30;99.90
33414;DHT22;60055;41.884;12.534;2022-11-15T15:20:35;16.30;99.90
33414;DHT22;60055;41.884;12.534;2022-11-15T15:23:03;16.30;99.90
33414;DHT22;60055;41.884;12.534;2022-11-15T15:25:33;16.30;99.90
33414;DHT22;60055;41.884;12.534;2022-11-15T15:28:01;16.30;99.90
33414;DHT22;60055;41.884;12.534;2022-11-15T15:30:28;16.30;99.90
33414;DHT22;60055;41.884;12.534;2022-11-15T15:32:55;16.30;99.90
33414;DHT22;60055;41.884;12.534;2022-11-15T15:35:21;16.20;99.90
33414;DHT22;60055;41.884;12.534;2022-11-15T15:37:48;16.20;99.90
33414;DHT22;60055;41.884;12.534;2022-11-15T15:42:39;16.20;99.90
33414;DHT22;60055;41.884;12.534;2022-11-15T15:45:05;16.20;99.90
33414;DHT22;60055;41.884;12.534;2022-11-15T15:47:31;16.20;99.90
33414;DHT22;60055;41.884;12.534;2022-11-15T15:49:57;16.20;99.90
33414;DHT22;60055;41.884;12.534;2022-11-15T15:52:22;16.10;99.90
33414;DHT22;60055;41.884;12.534;2022-11-15T15:54:48;16.20;99.90
33414;DHT22;60055;41.884;12.534;2022-11-15T15:57:14;16.10;99.90
33414;DHT22;60055;41.884;12.534;2022-11-15T15:59:41;16.10;99.90
33414;DHT22;60055;41.884;12.534;2022-11-15T16:02:14;16.10;99.90
33414;DHT22;60055;41.884;12.534;2022-11-15T16:04:40;16.10;99.90
33414;DHT22;60055;41.884;12.534;2022-11-15T16:07:17;16.10;99.90
33414;DHT22;60055;41.884;12.534;2022-11-15T16:09:50;16.10;99.90
33414;DHT22;60055;41.884;12.534;2022-11-15T16:12:36;16.10;99.90
33414;DHT22;60055;41.884;12.534;2022-11-15T16:15:02;16.10;99.90
33414;DHT22;60055;41.884;12.534;2022-11-15T16:17:34;16.10;99.90
33414;DHT22;60055;41.884;12.534;2022-11-15T16:20:03;16.10;99.90
33414;DHT22;60055;41.884;12.534;2022-11-15T16:22:31;16.10;99.90
33414;DHT22;60055;41.884;12.534;2022-11-15T16:24:57;16.00;99.90
33414;DHT22;60055;41.884;12.534;2022-11-15T16:27:23;16.00;99.90
33414;DHT22;60055;41.884;12.534;2022-11-15T16:29:51;16.10;99.90
33414;DHT22;60055;41.884;12.534;2022-11-15T16:32:17;16.10;99.90
33414;DHT22;60055;41.884;12.534;2022-11-15T16:34:42;16.10;99.90
33414;DHT22;60055;41.884;12.534;2022-11-15T16:37:24;16.00;99.90
33414;DHT22;60055;41.884;12.534;2022-11-15T16:39:51;16.00;99.90
33414;DHT22;60055;41.884;12.534;2022-11-15T16:42:17;16.00;99.90
33414;DHT22;60055;41.884;12.534;2022-11-15T16:44:42;16.10;99.90
33414;DHT22;60055;41.884;12.534;2022-11-15T16:47:19;16.00;99.90
33414;DHT22;60055;41.884;12.534;2022-11-15T16:49:45;16.00;99.90
33414;DHT22;60055;41.884;12.534;2022-11-15T16:52:11;16.00;99.90
33414;DHT22;60055;41.884;12.534;2022-11-15T16:54:37;16.00;99.90
33414;DHT22;60055;41.884;12.534;2022-11-15T16:57:03;16.00;99.90
33414;DHT22;60055;41.884;12.534;2022-11-15T16:59:30;16.00;99.90
33414;DHT22;60055;41.884;12.534;2022-11-15T17:01:57;16.00;99.90
33414;DHT22;60055;41.884;12.534;2022-11-15T17:04:23;16.00;99.90
33414;DHT22;60055;41.884;12.534;2022-11-15T17:06:55;16.00;99.90
33414;DHT22;60055;41.884;12.534;2022-11-15T17:09:22;16.00;99.90
33414;DHT22;60055;41.884;12.534;2022-11-15T17:12:09;16.00;99.90
33414;DHT22;60055;41.884;12.534;2022-11-15T17:14:36;16.00;99.90
33414;DHT22;60055;41.884;12.534;2022-11-15T17:17:04;16.00;99.90
33414;DHT22;60055;41.884;12.534;2022-11-15T17:19:33;16.00;99.90
33414;DHT22;60055;41.884;12.534;2022-11-15T17:21:59;16.00;99.90
33414;DHT22;60055;41.884;12.534;2022-11-15T17:24:25;16.00;99.90